Hardinsburg, KY (40143)

5:19 AM CST on February 14, 2016 (GMT -0600)
Eveleigh Road | | Change Station
CLOSE
Current Station
Personal Weather Station
Location: Leitchfield, KY
Elevation: 670 ft
Nearby Weather Stations
Active Advisory: Winter Storm Warning

Elev 670 ft 37.58 °N, 86.34 °W | Updated 11 seconds ago

Overcast
Overcast
21.4 °F
Feels Like 21 °F
N
0.7
Wind Variable Wind from North
Gusts 3.1 mph

Today
High -- | Low -- °F
--% Chance of Precip.
Yesterday
High -- | Low -- °F
Precip. -- in
Pressure 30.39 in
Visibility 10.0 miles
Clouds Scattered Clouds 4000 ft
Scattered Clouds 5000 ft
Scattered Clouds 6000 ft
Windchill 21 °F
Dew Point 13 °F
Humidity 70%
Rainfall 0.00 in
Snow Depth Not available.
6:37 AM 5:23 PM
Waxing Crescent, 40% visible
SPECI KFTK 141111Z AUTO 08007KT 10SM SCT040 SCT050 SCT060 M07/M14 A3039 RMK AO2 SNE11
Pressure 30.39 in
Visibility 10.0 miles
Clouds Scattered Clouds 4000 ft
Scattered Clouds 5000 ft
Scattered Clouds 6000 ft
Windchill 21 °F
Dew Point 13 °F
Humidity 70%
Rainfall 0.00 in
Snow Depth Not available.
6:37 AM 5:23 PM
Waxing Crescent, 40% visible
SPECI KFTK 141111Z AUTO 08007KT 10SM SCT040 SCT050 SCT060 M07/M14 A3039 RMK AO2 SNE11

10-Day Weather Forecast

Almanac

Astronomy

Feb. 14, 2016 Rise Set
Actual Time
Civil Twilight
Nautical Twilight
Astronomical Twilight
Moon
Length of Visible Light
Length of Day
Tomorrow will be .
, % of the Moon is Illuminated

Today's Extremes

State Highs State Lows

Community

WunderPhotos

Upload Photos

1,892,765 photos uploaded!

WunderBlog® & News

Nearby

Air Quality

  Air Quality AQ Index Pollutant
Not available.

Snow Depth

Station Depth Elevation

Earthquake Activity

City Distance Mag. Time & Date
Minimum magnitude displayed is 2.5.

Coastal Water Temperatures

Place Temperature

Stations

Nearby Weather Stations

Station Location Temp. Windchill Dew Point Humidity Wind Precip. Elev Updated Type
                   

Watches & Warnings

Winter Storm Warning
Issued: 3:11 AM CST Feb. 14, 2016 – National Weather Service

... Winter Storm Warning in effect from 10 am EST /9 am CST/ this
morning to 10 am EST /9 am CST/ Monday...

The National Weather Service in Louisville has issued a Winter
Storm Warning for snow... which is in effect from 10 am EST /9 am
CST/ this morning to 10 am EST /9 am CST/ Monday. The Winter
Weather Advisory is no longer in effect.

* Timing... light snow will begin this morning... becoming heavier
Sunday afternoon and evening.

* Main impact... 3 to 5 inches of snow will be possible by late
Sunday night. Travel will become difficult at times late this
afternoon and this evening.

* Other impacts... there is a chance of a brief period of
freezing drizzle late Sunday night before transitioning to
drizzle or rain by Monday morning.

Precautionary/preparedness actions...

A Winter Storm Warning for snow means severe winter weather
conditions are expected or occurring. Significant amounts of snow
are forecast that will make travel dangerous.